createdAt,value
2019-04-29T00:01:11.170Z,98650.53
2019-04-29T00:03:40.743Z,98655.48
2019-04-29T00:06:10.553Z,98648.41
2019-04-29T00:08:40.960Z,98647.59
2019-04-29T00:11:10.770Z,98645.16
2019-04-29T00:13:40.500Z,98638.67
2019-04-29T00:16:20.584Z,98644.27
2019-04-29T00:19:09.201Z,98639.46
2019-04-29T00:21:39.364Z,98639.31
2019-04-29T00:24:09.053Z,98635.87
2019-04-29T00:26:38.827Z,98630.37
2019-04-29T00:29:08.402Z,98624.66
2019-04-29T00:31:38.272Z,98631.78
2019-04-29T00:34:07.952Z,98639.47
2019-04-29T00:36:44.284Z,98635.47
2019-04-29T00:39:32.257Z,98639.36
2019-04-29T00:42:13.272Z,98642.59
2019-04-29T00:44:42.930Z,98634.73
2019-04-29T00:47:12.639Z,98631.41
2019-04-29T00:49:42.443Z,98628.99
2019-04-29T00:52:12.038Z,98628.83
2019-04-29T00:54:46.973Z,98627.59
2019-04-29T00:57:16.658Z,98623.86
2019-04-29T00:59:46.228Z,98633.08
2019-04-29T01:02:15.910Z,98635.30
2019-04-29T01:04:45.529Z,98633.53
2019-04-29T01:07:15.214Z,98629.73
2019-04-29T01:09:45.176Z,98627.44
2019-04-29T01:12:14.742Z,98625.09
2019-04-29T01:14:44.306Z,98631.20
2019-04-29T01:17:13.892Z,98627.03
2019-04-29T01:19:43.474Z,98625.78
2019-04-29T01:22:13.125Z,98629.86
2019-04-29T01:24:42.715Z,98628.19
2019-04-29T01:27:23.303Z,98623.85
2019-04-29T01:29:52.911Z,98622.71
2019-04-29T01:32:22.612Z,98618.72
2019-04-29T01:35:07.201Z,98620.40
2019-04-29T01:37:39.222Z,98615.61
2019-04-29T01:40:34.454Z,98620.95
2019-04-29T01:43:04.060Z,98621.20
2019-04-29T01:45:33.976Z,98624.63
2019-04-29T01:48:03.652Z,98627.73
2019-04-29T01:50:33.252Z,98631.34
2019-04-29T01:53:02.844Z,98633.78
2019-04-29T01:55:32.442Z,98635.88
2019-04-29T01:58:02.005Z,98637.84
2019-04-29T02:00:31.600Z,98632.64
2019-04-29T02:03:01.212Z,98634.55
2019-04-29T02:05:30.861Z,98627.52
2019-04-29T02:08:00.502Z,98623.52
2019-04-29T02:10:32.978Z,98618.47
2019-04-29T02:13:02.576Z,98623.73
2019-04-29T02:15:32.171Z,98628.67
2019-04-29T02:18:01.761Z,98620.67
2019-04-29T02:20:31.412Z,98618.23
2019-04-29T02:23:21.967Z,98619.20
2019-04-29T02:25:51.642Z,98612.63
2019-04-29T02:28:21.235Z,98616.19
2019-04-29T02:30:51.924Z,98613.66
2019-04-29T02:33:21.545Z,98611.25
2019-04-29T02:35:51.130Z,98610.16
2019-04-29T02:38:31.233Z,98611.17
2019-04-29T02:41:07.970Z,98614.03
2019-04-29T02:43:39.152Z,98611.91
2019-04-29T02:46:08.787Z,98618.45
2019-04-29T02:48:38.393Z,98619.36
2019-04-29T02:51:07.955Z,98623.66
2019-04-29T02:53:37.559Z,98543.69
2019-04-29T02:56:07.129Z,98624.30
2019-04-29T02:58:55.566Z,98630.32
2019-04-29T03:01:47.429Z,98632.39
2019-04-29T03:04:19.739Z,98634.07
2019-04-29T03:06:49.302Z,98629.17
2019-04-29T03:09:18.983Z,98621.24
2019-04-29T03:11:48.759Z,98618.56
2019-04-29T03:14:18.356Z,98621.48
2019-04-29T03:16:48.067Z,98626.45
2019-04-29T03:19:29.002Z,98630.22
2019-04-29T03:22:00.266Z,98634.22
2019-04-29T03:24:29.849Z,98628.77
2019-04-29T03:26:59.427Z,98619.37
2019-04-29T03:29:29.106Z,98625.30
2019-04-29T03:31:59.125Z,98619.27
2019-04-29T03:34:28.882Z,98617.08
2019-04-29T03:36:58.493Z,98618.54
2019-04-29T03:39:28.187Z,98624.77
2019-04-29T03:41:57.855Z,98629.09
2019-04-29T03:44:27.441Z,98625.19
2019-04-29T03:46:57.142Z,98620.88
2019-04-29T03:49:26.751Z,98622.88
2019-04-29T03:51:56.334Z,98624.69
2019-04-29T03:54:25.945Z,98630.02
2019-04-29T03:56:55.611Z,98624.62
2019-04-29T03:59:25.206Z,98633.94
2019-04-29T04:02:04.239Z,98635.13
2019-04-29T04:04:51.521Z,98645.34
2019-04-29T04:07:46.378Z,98652.55
2019-04-29T04:10:16.224Z,98655.89
2019-04-29T04:12:45.786Z,98665.35
2019-04-29T04:15:15.571Z,98666.82
2019-04-29T04:17:54.679Z,98663.02
2019-04-29T04:20:24.625Z,98672.25
2019-04-29T04:22:54.162Z,98678.17
2019-04-29T04:25:23.770Z,98674.82
2019-04-29T04:27:53.547Z,98672.64
2019-04-29T04:30:23.738Z,98668.36
2019-04-29T04:32:53.320Z,98670.10
2019-04-29T04:35:22.922Z,98670.67
2019-04-29T04:37:52.624Z,98666.03
2019-04-29T04:40:28.398Z,98665.67
2019-04-29T04:42:57.983Z,98670.55
2019-04-29T04:45:27.607Z,98669.05
2019-04-29T04:47:57.239Z,98662.82
2019-04-29T04:50:26.941Z,98657.50
2019-04-29T04:52:56.530Z,98662.50
2019-04-29T04:55:28.868Z,98658.92
2019-04-29T04:57:58.476Z,98653.30
2019-04-29T05:00:29.899Z,98649.44
2019-04-29T05:02:59.560Z,98646.31
2019-04-29T05:05:29.135Z,98646.31
2019-04-29T05:07:58.773Z,98650.76
2019-04-29T05:10:28.413Z,98647.11
2019-04-29T05:12:58.070Z,98650.42
2019-04-29T05:15:27.829Z,98650.48
2019-04-29T05:17:57.471Z,98651.70
2019-04-29T05:20:27.075Z,98655.59
2019-04-29T05:22:59.696Z,98649.81
2019-04-29T05:25:31.211Z,98655.30
2019-04-29T05:28:01.617Z,98657.20
2019-04-29T05:30:31.355Z,98645.99
2019-04-29T05:33:00.982Z,98647.88
2019-04-29T05:35:42.936Z,98647.82
2019-04-29T05:38:21.046Z,98650.52
2019-04-29T05:40:51.767Z,98641.64
2019-04-29T05:43:33.462Z,98643.68
2019-04-29T05:46:23.245Z,98641.47
2019-04-29T05:48:53.201Z,98633.59
2019-04-29T05:51:47.568Z,98624.27
2019-04-29T05:54:17.923Z,98624.71
2019-04-29T05:56:47.579Z,98628.09
2019-04-29T05:59:17.261Z,98627.03
2019-04-29T06:01:48.792Z,98623.50
2019-04-29T06:04:18.355Z,98620.43
2019-04-29T06:06:47.940Z,98621.28
2019-04-29T06:09:18.391Z,98620.64
2019-04-29T06:11:48.201Z,98618.61
2019-04-29T06:14:17.802Z,98624.09
2019-04-29T06:16:47.536Z,98499.27
2019-04-29T06:19:17.155Z,98620.65
2019-04-29T06:21:46.805Z,98618.00
2019-04-29T06:24:16.380Z,98622.54
2019-04-29T06:26:46.061Z,98620.31
2019-04-29T06:29:15.673Z,98618.08
2019-04-29T06:31:45.294Z,98618.03
2019-04-29T06:34:14.889Z,98612.48
2019-04-29T06:36:44.479Z,98614.89
2019-04-29T06:39:14.135Z,98598.17
2019-04-29T06:41:45.545Z,98601.12
2019-04-29T06:44:16.540Z,98603.59
2019-04-29T06:46:50.169Z,98600.64
2019-04-29T06:49:17.821Z,98597.55
2019-04-29T06:51:47.417Z,98597.59
2019-04-29T06:54:18.250Z,98590.79
2019-04-29T06:56:47.948Z,98584.50
2019-04-29T06:59:17.609Z,98579.06
2019-04-29T07:01:47.226Z,98576.92
2019-04-29T07:04:16.835Z,98579.47
2019-04-29T07:06:57.106Z,98582.76
2019-04-29T07:09:17.854Z,98588.14
2019-04-29T07:11:47.544Z,98590.27
2019-04-29T07:14:17.187Z,98588.91
2019-04-29T07:16:46.817Z,98583.19
2019-04-29T07:19:16.466Z,98580.25
2019-04-29T07:21:47.067Z,98581.98
2019-04-29T07:24:20.202Z,98585.16
2019-04-29T07:26:48.455Z,98576.23
2019-04-29T07:29:18.469Z,98580.32
2019-04-29T07:31:48.594Z,98581.86
2019-04-29T07:34:18.221Z,98580.42
2019-04-29T07:36:47.869Z,98464.38
2019-04-29T07:39:17.492Z,98582.53
2019-04-29T07:41:49.524Z,98583.64
2019-04-29T07:44:20.025Z,98592.56
2019-04-29T07:46:59.136Z,98588.72
2019-04-29T07:49:26.317Z,98583.41
2019-04-29T07:51:55.962Z,98582.05
2019-04-29T07:54:25.653Z,98582.19
2019-04-29T07:56:55.248Z,98583.19
2019-04-29T07:59:24.945Z,98576.88
2019-04-29T08:01:55.553Z,98576.09
2019-04-29T08:04:25.929Z,98575.42
2019-04-29T08:06:56.653Z,98572.54
2019-04-29T08:09:26.753Z,98565.87
2019-04-29T08:11:56.703Z,98564.91
2019-04-29T08:14:29.135Z,98566.03
2019-04-29T08:16:58.747Z,98442.73
2019-04-29T08:19:34.070Z,98577.27
2019-04-29T08:22:03.770Z,98572.41
2019-04-29T08:24:33.365Z,98571.35
2019-04-29T08:27:03.048Z,98574.75
2019-04-29T08:29:35.721Z,98571.03
2019-04-29T08:32:04.016Z,98570.61
2019-04-29T08:34:33.756Z,98558.94
2019-04-29T08:37:03.361Z,98563.43
2019-04-29T08:39:32.946Z,98566.28
2019-04-29T08:42:08.832Z,98550.20
2019-04-29T08:44:59.673Z,98547.50
2019-04-29T08:47:31.609Z,98541.69
2019-04-29T08:50:00.684Z,98536.08
2019-04-29T08:52:30.337Z,98529.48
2019-04-29T08:54:59.957Z,98527.31
2019-04-29T08:57:31.845Z,98522.81
2019-04-29T09:00:00.912Z,98513.88
2019-04-29T09:02:34.910Z,98515.72
2019-04-29T09:05:01.862Z,98512.70
2019-04-29T09:07:31.499Z,98509.75
2019-04-29T09:10:03.483Z,98496.55
2019-04-29T09:12:32.549Z,98486.98
2019-04-29T09:15:02.121Z,98482.03
2019-04-29T09:17:31.731Z,98482.34
2019-04-29T09:20:01.406Z,98473.20
2019-04-29T09:22:32.709Z,98486.31
2019-04-29T09:25:33.415Z,98478.86
2019-04-29T09:28:07.331Z,98475.22
2019-04-29T09:30:38.788Z,98475.47
2019-04-29T09:33:12.823Z,98468.17
2019-04-29T09:35:40.552Z,98467.03
2019-04-29T09:38:10.400Z,98454.88
2019-04-29T09:40:45.756Z,98449.52
2019-04-29T09:43:27.604Z,98448.79
2019-04-29T09:46:21.982Z,98451.52
2019-04-29T09:48:51.541Z,98449.61
2019-04-29T09:51:22.622Z,98441.64
2019-04-29T09:53:52.583Z,98439.13
2019-04-29T09:56:22.369Z,98438.34
2019-04-29T09:58:54.139Z,98431.98
2019-04-29T10:01:43.964Z,98428.23
2019-04-29T10:04:56.798Z,98426.03
2019-04-29T10:07:22.034Z,98414.00
2019-04-29T10:09:57.548Z,98421.22
2019-04-29T10:12:23.019Z,98416.33
2019-04-29T10:14:52.749Z,98415.87
2019-04-29T10:17:56.044Z,98410.14
2019-04-29T10:20:38.856Z,98404.84
2019-04-29T10:23:08.635Z,98397.70
2019-04-29T10:25:38.341Z,98397.03
2019-04-29T10:28:08.025Z,98398.19
2019-04-29T10:30:37.736Z,98401.77
2019-04-29T10:33:07.355Z,98399.27
2019-04-29T10:35:40.823Z,98396.11
2019-04-29T10:38:08.413Z,98389.64
2019-04-29T10:40:56.533Z,98382.48
2019-04-29T10:43:45.307Z,98380.43
2019-04-29T10:46:32.723Z,98381.36
2019-04-29T10:49:07.556Z,98379.02
2019-04-29T10:51:37.260Z,98368.78
2019-04-29T10:54:07.206Z,98376.61
2019-04-29T10:56:39.394Z,98369.83
2019-04-29T10:59:11.116Z,98361.28
2019-04-29T11:02:29.136Z,98363.05
2019-04-29T11:05:12.085Z,98345.72
2019-04-29T11:07:43.491Z,98342.34
2019-04-29T11:10:26.676Z,98337.42
2019-04-29T11:12:57.039Z,98256.17
2019-04-29T11:15:32.727Z,98328.58
2019-04-29T11:18:03.785Z,98230.02
2019-04-29T11:20:34.845Z,98317.69
2019-04-29T11:23:22.767Z,98309.55
2019-04-29T11:26:24.625Z,98304.65
2019-04-29T11:28:54.835Z,98304.77
2019-04-29T11:31:24.875Z,98293.23
2019-04-29T11:34:20.374Z,98299.85
2019-04-29T11:36:50.027Z,98292.80
2019-04-29T11:39:19.945Z,98290.88
2019-04-29T11:41:50.219Z,98289.49
2019-04-29T11:44:21.875Z,98284.61
2019-04-29T11:46:53.014Z,98275.50
2019-04-29T11:49:29.376Z,98281.46
2019-04-29T11:52:08.986Z,98272.43
2019-04-29T11:54:30.484Z,98268.52
2019-04-29T11:57:00.210Z,98266.48
2019-04-29T11:59:48.735Z,98188.00
2019-04-29T12:02:45.687Z,98258.98
2019-04-29T12:05:35.662Z,98257.70
2019-04-29T12:08:11.823Z,98247.30
2019-04-29T12:10:38.277Z,98239.14
2019-04-29T12:13:11.618Z,98234.39
2019-04-29T12:16:02.918Z,98234.63
2019-04-29T12:18:39.869Z,98238.56
2019-04-29T12:21:20.749Z,98232.70
2019-04-29T12:23:52.042Z,98228.50
2019-04-29T12:26:21.923Z,98227.72
2019-04-29T12:28:51.517Z,98216.55
2019-04-29T12:31:39.978Z,98204.97
2019-04-29T12:34:20.053Z,98211.09
2019-04-29T12:36:55.838Z,98205.92
2019-04-29T12:39:43.517Z,98198.82
2019-04-29T12:42:28.122Z,98194.98
2019-04-29T12:45:19.350Z,98191.95
2019-04-29T12:47:43.765Z,98182.59
2019-04-29T12:50:13.583Z,98186.50
2019-04-29T12:52:43.226Z,98180.94
2019-04-29T12:55:20.395Z,98176.79
2019-04-29T12:57:45.986Z,98171.91
2019-04-29T13:00:21.290Z,98171.06
2019-04-29T13:03:03.862Z,98170.91
2019-04-29T13:05:59.857Z,98173.30
2019-04-29T13:08:48.978Z,98173.97
2019-04-29T13:11:20.770Z,98175.57
2019-04-29T13:13:51.420Z,98167.49
2019-04-29T13:16:32.178Z,98154.94
2019-04-29T13:19:25.187Z,98053.31
2019-04-29T13:21:52.796Z,98142.52
2019-04-29T13:24:24.534Z,98149.16
2019-04-29T13:26:53.825Z,98148.56
2019-04-29T13:29:27.237Z,98149.64
2019-04-29T13:31:55.899Z,98152.23
2019-04-29T13:34:33.324Z,98143.23
2019-04-29T13:37:07.177Z,98147.67
2019-04-29T13:39:39.633Z,98142.98
2019-04-29T13:42:09.062Z,98142.20
2019-04-29T13:44:41.995Z,98137.69
2019-04-29T13:47:29.291Z,98136.88
2019-04-29T13:50:18.092Z,98135.45
2019-04-29T13:52:34.767Z,98128.62
2019-04-29T13:55:17.202Z,98127.91
2019-04-29T13:57:35.910Z,98131.55
2019-04-29T14:00:30.978Z,98121.02
2019-04-29T14:03:07.252Z,98126.08
2019-04-29T14:05:37.792Z,98120.20
2019-04-29T14:08:07.708Z,98118.03
2019-04-29T14:10:37.451Z,98118.70
2019-04-29T14:13:15.202Z,98114.76
2019-04-29T14:15:40.491Z,98113.48
2019-04-29T14:18:11.731Z,98104.27
2019-04-29T14:20:41.475Z,98118.23
2019-04-29T14:23:11.227Z,98001.66
2019-04-29T14:25:40.890Z,98116.09
2019-04-29T14:28:10.505Z,98118.83
2019-04-29T14:30:43.729Z,98113.91
2019-04-29T14:33:11.553Z,98114.23
2019-04-29T14:35:49.965Z,98105.89
2019-04-29T14:38:19.703Z,98109.66
2019-04-29T14:40:49.333Z,98109.76
2019-04-29T14:43:55.209Z,98103.52
2019-04-29T14:46:38.573Z,98104.83
2019-04-29T14:49:17.456Z,98106.84
2019-04-29T14:51:47.313Z,98103.16
2019-04-29T14:54:16.963Z,98100.31
2019-04-29T14:56:46.575Z,98098.75
2019-04-29T14:59:16.207Z,98101.12
2019-04-29T15:01:54.653Z,98093.41
2019-04-29T15:04:26.862Z,98096.53
2019-04-29T15:06:56.550Z,98100.63
2019-04-29T15:09:26.369Z,98095.44
2019-04-29T15:12:17.263Z,98096.63
2019-04-29T15:15:08.190Z,98097.19
2019-04-29T15:18:15.319Z,98094.23
2019-04-29T15:20:55.922Z,98091.99
2019-04-29T15:23:28.916Z,98089.33
2019-04-29T15:25:55.928Z,98090.91
2019-04-29T15:28:25.605Z,98084.31
2019-04-29T15:30:55.249Z,98086.54
2019-04-29T15:33:25.043Z,98089.58
2019-04-29T15:35:54.955Z,98088.65
2019-04-29T15:38:26.057Z,98094.13
2019-04-29T15:40:55.762Z,98090.27
2019-04-29T15:43:45.474Z,98094.14
2019-04-29T15:45:56.746Z,98050.13
2019-04-29T15:48:26.368Z,98089.39
2019-04-29T15:50:56.340Z,98082.42
2019-04-29T15:53:26.088Z,98082.80
2019-04-29T15:56:06.507Z,98085.17
2019-04-29T15:58:28.915Z,98077.65
2019-04-29T16:01:11.361Z,98077.17
2019-04-29T16:03:29.819Z,98079.49
2019-04-29T16:06:21.639Z,98075.69
2019-04-29T16:08:59.874Z,98073.09
2019-04-29T16:11:47.027Z,98081.50
2019-04-29T16:14:22.281Z,98076.55
2019-04-29T16:16:51.922Z,98076.48
2019-04-29T16:19:21.650Z,98080.59
2019-04-29T16:21:51.271Z,98061.64
2019-04-29T16:24:37.607Z,98080.36
2019-04-29T16:26:53.845Z,98074.36
2019-04-29T16:29:23.641Z,98080.58
2019-04-29T16:31:54.914Z,98068.14
2019-04-29T16:34:24.638Z,98081.83
2019-04-29T16:36:54.395Z,98072.21
2019-04-29T16:39:24.087Z,98079.87
2019-04-29T16:42:10.972Z,98083.19
2019-04-29T16:44:41.750Z,98082.79
2019-04-29T16:47:13.117Z,98083.70
2019-04-29T16:49:43.320Z,98084.23
2019-04-29T16:52:12.950Z,98089.38
2019-04-29T16:54:42.719Z,98092.57
2019-04-29T16:57:12.327Z,98094.35
2019-04-29T16:59:42.037Z,98093.63
2019-04-29T17:02:18.988Z,98103.95
2019-04-29T17:04:43.064Z,98100.83
2019-04-29T17:07:14.515Z,98108.84
2019-04-29T17:10:06.408Z,98101.50
2019-04-29T17:12:40.453Z,98101.50
2019-04-29T17:15:24.216Z,98114.02
2019-04-29T17:17:41.641Z,98114.02
2019-04-29T17:20:11.447Z,98117.83
2019-04-29T17:22:43.392Z,98113.89
2019-04-29T17:25:13.758Z,98117.35
2019-04-29T17:28:02.344Z,98117.35
2019-04-29T17:30:50.112Z,98124.49
2019-04-29T17:33:28.371Z,98124.49
2019-04-29T17:35:56.161Z,98133.56
2019-04-29T17:38:25.912Z,98133.56
2019-04-29T17:40:55.552Z,98134.33
2019-04-29T17:43:59.524Z,98134.53
2019-04-29T17:46:45.335Z,98137.85
2019-04-29T17:49:30.980Z,98131.98
2019-04-29T17:52:03.041Z,98141.37
2019-04-29T17:54:37.242Z,98141.90
2019-04-29T17:57:26.389Z,98144.95
2019-04-29T18:00:08.573Z,98148.77
2019-04-29T18:02:57.354Z,98149.13
2019-04-29T18:05:52.239Z,98151.31
2019-04-29T18:08:18.646Z,98164.70
2019-04-29T18:10:52.415Z,98161.97
2019-04-29T18:13:24.673Z,98168.81
2019-04-29T18:16:01.492Z,98171.02
2019-04-29T18:18:46.147Z,98172.66
2019-04-29T18:21:25.081Z,98177.33
2019-04-29T18:24:18.503Z,98186.90
2019-04-29T18:26:55.643Z,98189.84
2019-04-29T18:29:25.804Z,98186.05
2019-04-29T18:31:55.703Z,98192.08
2019-04-29T18:34:25.318Z,98188.73
2019-04-29T18:37:00.161Z,98195.02
2019-04-29T18:39:29.957Z,98197.70
2019-04-29T18:42:03.076Z,98196.67
2019-04-29T18:44:30.762Z,98196.99
2019-04-29T18:47:00.384Z,98199.17
2019-04-29T18:49:30.028Z,98200.52
2019-04-29T18:52:02.318Z,98137.05
2019-04-29T18:54:31.179Z,98208.97
2019-04-29T18:57:00.843Z,98203.25
2019-04-29T18:59:33.483Z,98204.64
2019-04-29T19:02:07.872Z,98206.53
2019-04-29T19:04:40.993Z,98204.31
2019-04-29T19:07:10.665Z,98214.44
2019-04-29T19:09:41.190Z,98209.78
2019-04-29T19:12:10.879Z,98098.20
2019-04-29T19:14:40.489Z,98206.79
2019-04-29T19:17:10.198Z,98206.79
2019-04-29T19:19:39.835Z,98198.10
2019-04-29T19:22:09.674Z,98203.25
2019-04-29T19:24:39.496Z,98205.38
2019-04-29T19:27:10.041Z,98212.52
2019-04-29T19:29:43.324Z,98209.78
2019-04-29T19:32:11.365Z,98213.33
2019-04-29T19:34:43.457Z,98213.33
2019-04-29T19:37:12.397Z,98211.09
2019-04-29T19:39:42.040Z,98207.02
2019-04-29T19:42:11.766Z,98206.70
2019-04-29T19:44:41.407Z,98201.77
2019-04-29T19:47:15.101Z,98201.01
2019-04-29T19:49:44.764Z,98208.25
2019-04-29T19:52:18.426Z,98211.55
2019-04-29T19:54:45.270Z,98209.48
2019-04-29T19:57:15.034Z,98213.00
2019-04-29T19:59:51.499Z,98209.85
2019-04-29T20:02:17.216Z,98205.52
2019-04-29T20:05:05.000Z,98211.55
2019-04-29T20:07:41.234Z,98210.77
2019-04-29T20:10:08.970Z,98208.28
2019-04-29T20:12:37.226Z,98200.38
2019-04-29T20:15:08.685Z,98199.84
2019-04-29T20:17:58.031Z,98198.44
2019-04-29T20:20:40.944Z,98205.33
2019-04-29T20:23:10.755Z,98200.98
2019-04-29T20:25:40.686Z,98198.22
2019-04-29T20:28:16.880Z,98206.67
2019-04-29T20:30:42.069Z,98198.05
2019-04-29T20:33:12.876Z,98199.04
2019-04-29T20:35:45.317Z,98200.35
2019-04-29T20:38:15.746Z,98208.91
2019-04-29T20:40:46.581Z,98204.36
2019-04-29T20:43:20.856Z,98201.87
2019-04-29T20:45:48.082Z,98203.92
2019-04-29T20:48:19.628Z,98205.78
2019-04-29T20:50:52.671Z,98203.16
2019-04-29T20:53:38.726Z,98201.61
2019-04-29T20:56:12.296Z,98206.45
2019-04-29T20:58:38.139Z,98199.34
2019-04-29T21:01:11.534Z,98202.86
2019-04-29T21:03:46.203Z,98201.48
2019-04-29T21:06:12.744Z,98205.02
2019-04-29T21:08:46.709Z,98204.66
2019-04-29T21:11:21.051Z,98212.39
2019-04-29T21:14:15.618Z,98201.48
2019-04-29T21:16:47.497Z,98204.14
2019-04-29T21:19:17.124Z,98205.77
2019-04-29T21:21:47.582Z,98210.10
2019-04-29T21:24:18.781Z,98202.68
2019-04-29T21:26:48.570Z,98203.72
2019-04-29T21:29:19.535Z,98203.68
2019-04-29T21:31:50.747Z,98205.42
2019-04-29T21:34:22.496Z,98211.83
2019-04-29T21:37:21.840Z,98211.84
2019-04-29T21:40:07.197Z,98228.74
2019-04-29T21:42:49.952Z,98212.98
2019-04-29T21:45:19.658Z,98219.13
2019-04-29T21:47:53.205Z,98223.57
2019-04-29T21:50:20.862Z,98219.46
2019-04-29T21:52:50.489Z,98226.42
2019-04-29T21:55:20.561Z,98175.97
2019-04-29T21:57:54.493Z,98237.54
2019-04-29T22:00:24.536Z,98241.14
2019-04-29T22:02:55.424Z,98236.68
2019-04-29T22:05:25.221Z,98244.70
2019-04-29T22:07:55.154Z,98241.45
2019-04-29T22:10:29.009Z,98243.76
2019-04-29T22:13:01.785Z,98242.47
2019-04-29T22:15:32.809Z,98243.20
2019-04-29T22:18:01.655Z,98243.48
2019-04-29T22:20:30.753Z,98241.27
2019-04-29T22:23:00.422Z,98240.68
2019-04-29T22:25:30.050Z,98242.90
2019-04-29T22:27:59.680Z,98242.66
2019-04-29T22:30:29.498Z,98237.12
2019-04-29T22:32:59.955Z,98230.87
2019-04-29T22:35:32.868Z,98237.28
2019-04-29T22:38:01.105Z,98235.83
2019-04-29T22:40:34.183Z,98235.33
2019-04-29T22:43:14.279Z,98232.13
2019-04-29T22:45:43.226Z,98229.63
2019-04-29T22:48:17.468Z,98232.08
2019-04-29T22:50:45.492Z,98235.88
2019-04-29T22:53:16.517Z,98221.34
2019-04-29T22:55:46.127Z,98225.69
2019-04-29T22:58:15.706Z,98229.26
2019-04-29T23:00:45.316Z,98238.05
2019-04-29T23:03:14.900Z,98226.60
2019-04-29T23:05:46.150Z,98230.44
2019-04-29T23:08:15.938Z,98228.59
2019-04-29T23:10:45.679Z,98230.08
2019-04-29T23:13:15.307Z,98235.60
2019-04-29T23:15:45.547Z,98238.57
2019-04-29T23:18:24.534Z,98232.97
2019-04-29T23:21:08.731Z,98226.00
2019-04-29T23:23:45.262Z,98229.48
2019-04-29T23:26:14.806Z,98224.31
2019-04-29T23:28:46.050Z,98237.21
2019-04-29T23:31:15.758Z,98227.77
2019-04-29T23:33:45.711Z,98225.66
2019-04-29T23:36:16.021Z,98229.12
2019-04-29T23:38:45.878Z,98230.61
2019-04-29T23:41:15.449Z,98229.08
2019-04-29T23:43:45.599Z,98226.31
2019-04-29T23:46:16.158Z,98226.75
2019-04-29T23:48:46.777Z,98234.94
2019-04-29T23:51:16.681Z,98221.97
2019-04-29T23:53:46.268Z,98228.35
2019-04-29T23:56:16.344Z,98237.46
2019-04-29T23:58:51.980Z,98219.54
